Time;durP1;ratioP1;P1;durP2;ratioP2;P2;SDS_P1;SDS_P2;PMS_P1;PMS_P2;Temp;Humidity;BMP_temperature;BMP_pressure;BME280_temperature;BME280_humidity;BME280_pressure;Samples;Min_cycle;Max_cycle;Signal;HPM_P1;HPM_P2
2023/11/05 00:01:49;;;;;;;1.17;0.63;;;11.30;99.90;;;;;;5048141;28;20029;-69
2023/11/05 00:04:15;;;;;;;0.50;0.40;;;11.30;99.90;;;;;;5046870;28;20028;-69
2023/11/05 00:06:41;;;;;;;3.72;0.90;;;11.30;99.90;;;;;;5049207;28;20394;-69
2023/11/05 00:09:09;;;;;;;2.35;0.70;;;11.30;99.90;;;;;;5048908;28;20037;-69
2023/11/05 00:11:35;;;;;;;2.65;0.70;;;11.30;99.90;;;;;;5047674;28;20025;-69
2023/11/05 00:14:02;;;;;;;1.63;0.70;;;11.30;99.90;;;;;;5045901;28;20029;-69
2023/11/05 00:16:30;;;;;;;1.10;0.57;;;11.30;99.90;;;;;;5045957;28;20033;-70
2023/11/05 00:18:57;;;;;;;4.55;0.73;;;11.30;99.90;;;;;;5045631;28;20036;-70
2023/11/05 00:21:25;;;;;;;1.52;0.40;;;11.20;99.90;;;;;;5044763;28;20112;-69
2023/11/05 00:23:51;;;;;;;1.35;0.68;;;11.20;99.90;;;;;;5048255;28;20056;-69
2023/11/05 00:26:17;;;;;;;2.38;0.70;;;11.20;99.90;;;;;;5047713;28;20653;-69
2023/11/05 00:28:42;;;;;;;2.05;0.90;;;11.20;99.90;;;;;;5047516;28;20063;-69
2023/11/05 00:31:11;;;;;;;2.40;0.60;;;11.10;99.90;;;;;;5046479;28;20033;-70
2023/11/05 00:33:36;;;;;;;2.42;0.80;;;11.10;99.90;;;;;;5044074;28;20029;-69
2023/11/05 00:36:02;;;;;;;1.45;0.80;;;11.10;99.90;;;;;;5048011;28;20479;-69
2023/11/05 00:38:27;;;;;;;4.22;0.80;;;11.10;99.90;;;;;;5047119;28;20102;-69
2023/11/05 00:40:56;;;;;;;1.45;0.70;;;11.20;99.90;;;;;;5044085;28;20100;-70
2023/11/05 00:43:21;;;;;;;2.63;0.70;;;11.10;99.90;;;;;;5042714;28;20063;-69
2023/11/05 00:45:47;;;;;;;1.73;1.05;;;11.10;99.90;;;;;;5041808;28;20068;-69
2023/11/05 00:48:15;;;;;;;2.17;0.88;;;11.20;99.90;;;;;;5048657;28;20036;-69
2023/11/05 00:50:40;;;;;;;;;;;11.10;99.90;;;;;;5043281;28;20075;-69
2023/11/05 00:53:06;;;;;;;4.38;1.00;;;11.10;99.90;;;;;;5044281;28;19947;-70
2023/11/05 00:55:34;;;;;;;1.60;0.90;;;11.10;99.90;;;;;;5045780;28;20029;-69
2023/11/05 00:58:04;;;;;;;6.63;1.35;;;11.10;99.90;;;;;;5047359;28;20411;-69
2023/11/05 01:00:29;;;;;;;4.07;1.05;;;11.20;99.90;;;;;;5044318;28;20147;-70
2023/11/05 01:02:57;;;;;;;3.72;1.10;;;11.10;99.90;;;;;;5047755;28;20100;-69
2023/11/05 01:05:23;;;;;;;3.25;1.20;;;11.20;99.90;;;;;;5047142;28;20029;-69
2023/11/05 01:07:49;;;;;;;5.07;1.00;;;11.20;99.90;;;;;;5044584;28;20029;-69
2023/11/05 01:10:14;;;;;;;1.17;0.70;;;11.20;99.90;;;;;;5041906;28;20475;-69
2023/11/05 01:12:40;;;;;;;2.17;0.75;;;11.20;99.90;;;;;;5045936;28;20074;-70
2023/11/05 01:15:06;;;;;;;1.33;0.70;;;11.20;99.90;;;;;;5046918;28;20029;-69
2023/11/05 01:17:32;;;;;;;2.03;0.70;;;11.20;99.90;;;;;;5043465;28;20029;-69
2023/11/05 01:19:58;;;;;;;2.75;0.60;;;11.20;99.90;;;;;;5046641;28;20100;-69
2023/11/05 01:22:23;;;;;;;1.08;0.70;;;11.20;99.90;;;;;;5045638;28;20036;-69
2023/11/05 01:24:49;;;;;;;6.00;0.60;;;11.20;99.90;;;;;;5045891;28;20151;-69
2023/11/05 01:27:15;;;;;;;2.00;0.70;;;11.20;99.90;;;;;;5045813;28;20088;-69
2023/11/05 01:29:40;;;;;;;5.07;0.70;;;11.20;99.90;;;;;;5044417;28;20025;-69
2023/11/05 01:32:07;;;;;;;2.92;1.05;;;11.30;99.90;;;;;;5044708;28;20112;-69
2023/11/05 01:34:33;;;;;;;3.33;0.95;;;11.30;99.90;;;;;;5040401;28;20400;-69
2023/11/05 01:36:59;;;;;;;1.75;1.02;;;11.30;99.90;;;;;;5045754;28;20025;-69
2023/11/05 01:39:25;;;;;;;1.17;0.70;;;11.40;99.90;;;;;;5042637;28;20091;-69
2023/11/05 01:41:50;;;;;;;0.90;0.52;;;11.40;99.90;;;;;;5043657;28;20036;-69
2023/11/05 01:44:16;;;;;;;5.28;0.73;;;11.40;99.90;;;;;;5043300;28;20037;-69
2023/11/05 01:46:44;;;;;;;2.83;0.88;;;11.40;99.90;;;;;;5038791;28;20048;-69
2023/11/05 01:49:11;;;;;;;2.50;0.75;;;11.40;99.90;;;;;;5044165;28;20025;-69
2023/11/05 01:51:39;;;;;;;4.30;0.60;;;11.40;99.90;;;;;;5045089;28;20037;-70
2023/11/05 01:54:07;;;;;;;2.92;0.85;;;11.40;99.90;;;;;;5043613;28;20029;-69
2023/11/05 01:56:35;;;;;;;1.70;0.50;;;11.40;99.90;;;;;;5048288;28;20083;-69
2023/11/05 01:59:02;;;;;;;4.07;0.70;;;11.40;99.90;;;;;;5049718;28;20056;-71
2023/11/05 02:01:28;;;;;;;0.90;0.70;;;11.40;99.90;;;;;;5050218;28;20021;-69
2023/11/05 02:03:54;;;;;;;3.35;0.82;;;11.40;99.90;;;;;;5048678;28;20032;-69
2023/11/05 02:06:19;;;;;;;0.82;0.60;;;11.40;99.90;;;;;;5048582;28;20041;-69
2023/11/05 02:08:47;;;;;;;2.50;0.60;;;11.40;99.90;;;;;;5049709;28;20067;-69
2023/11/05 02:11:13;;;;;;;1.20;0.85;;;11.50;99.90;;;;;;5047827;28;20066;-70
2023/11/05 02:13:52;;;;;;;3.97;0.75;;;11.50;99.90;;;;;;5045819;28;20438;-70
2023/11/05 02:16:19;;;;;;;1.40;0.60;;;11.50;99.90;;;;;;5045826;28;20079;-69
2023/11/05 02:18:50;;;;;;;4.97;0.60;;;11.50;99.90;;;;;;5049363;28;20387;-70
2023/11/05 02:21:28;;;;;;;3.13;0.82;;;11.50;99.90;;;;;;5046241;28;20029;-69
2023/11/05 02:23:54;;;;;;;2.70;0.90;;;11.50;99.90;;;;;;5047556;28;20024;-70
2023/11/05 02:26:22;;;;;;;3.35;0.90;;;11.60;99.90;;;;;;5048300;28;20119;-69
2023/11/05 02:28:50;;;;;;;2.38;0.90;;;11.50;99.90;;;;;;5048485;28;20990;-70
2023/11/05 02:31:19;;;;;;;3.72;1.38;;;11.50;99.90;;;;;;5044380;28;20068;-69
2023/11/05 02:33:45;;;;;;;4.07;0.95;;;11.60;99.90;;;;;;5048623;28;20021;-69
2023/11/05 02:36:11;;;;;;;3.05;0.70;;;11.60;99.90;;;;;;5048799;28;20024;-69
2023/11/05 02:38:40;;;;;;;2.85;1.00;;;11.60;99.90;;;;;;5047823;28;20032;-69
2023/11/05 02:41:10;;;;;;;9.00;1.20;;;11.60;99.90;;;;;;5049426;28;20368;-69
2023/11/05 02:43:38;;;;;;;2.17;0.95;;;11.70;99.90;;;;;;5043272;28;20090;-69
2023/11/05 02:46:04;;;;;;;;;;;11.60;99.90;;;;;;5048875;28;20540;-70
2023/11/05 02:48:29;;;;;;;5.72;0.88;;;11.70;99.90;;;;;;5050834;28;19923;-69
2023/11/05 02:50:55;;;;;;;5.85;0.90;;;11.60;99.90;;;;;;5047998;28;20025;-69
2023/11/05 02:53:21;;;;;;;3.55;0.80;;;11.60;99.90;;;;;;5048596;28;20028;-69
2023/11/05 02:55:52;;;;;;;2.08;0.95;;;11.70;99.90;;;;;;5047344;28;20032;-69
2023/11/05 02:58:17;;;;;;;3.83;0.57;;;11.70;99.90;;;;;;5044734;28;20029;-69
2023/11/05 03:00:44;;;;;;;1.52;0.75;;;11.70;99.90;;;;;;5050013;28;20458;-69
2023/11/05 03:03:11;;;;;;;5.05;1.10;;;11.70;99.90;;;;;;5044590;28;20052;-69
2023/11/05 03:05:40;;;;;;;3.43;1.10;;;11.70;99.90;;;;;;5047136;28;20025;-70
2023/11/05 03:08:06;;;;;;;5.60;0.90;;;11.70;99.90;;;;;;5046115;28;20053;-69
2023/11/05 03:10:31;;;;;;;3.00;1.00;;;11.70;99.90;;;;;;5047053;28;20533;-69
2023/11/05 03:12:57;;;;;;;2.78;0.77;;;11.70;99.90;;;;;;5048062;28;20066;-69
2023/11/05 03:15:23;;;;;;;6.45;1.50;;;11.70;99.90;;;;;;5045849;28;20056;-69
2023/11/05 03:17:49;;;;;;;3.45;0.98;;;11.70;99.90;;;;;;5049543;28;20025;-69
2023/11/05 03:20:18;;;;;;;3.42;0.60;;;11.70;99.90;;;;;;5041241;28;20029;-69
2023/11/05 03:22:43;;;;;;;;;;;11.70;99.90;;;;;;5046136;28;20495;-69
2023/11/05 03:25:11;;;;;;;1.20;0.40;;;11.70;99.90;;;;;;5048053;28;19909;-69
2023/11/05 03:27:38;;;;;;;3.10;0.60;;;11.70;99.90;;;;;;5049070;28;20029;-69
2023/11/05 03:30:04;;;;;;;5.22;1.00;;;11.70;99.90;;;;;;5044393;28;20043;-69
2023/11/05 03:32:31;;;;;;;2.10;0.40;;;11.60;99.90;;;;;;5043201;28;20036;-69
2023/11/05 03:34:56;;;;;;;2.65;0.90;;;11.70;99.90;;;;;;5047488;28;20395;-68
2023/11/05 03:37:22;;;;;;;3.90;0.65;;;11.60;99.90;;;;;;5041885;28;20040;-69
2023/11/05 03:39:48;;;;;;;2.83;0.80;;;11.60;99.90;;;;;;5046697;28;20482;-69
2023/11/05 03:42:17;;;;;;;7.15;0.60;;;11.60;99.90;;;;;;5045306;28;20070;-68
2023/11/05 03:44:43;;;;;;;6.22;0.93;;;11.60;99.90;;;;;;5047725;28;20024;-69
2023/11/05 03:47:08;;;;;;;3.88;0.80;;;11.60;99.90;;;;;;5043657;28;20147;-69
2023/11/05 03:49:34;;;;;;;3.00;0.90;;;11.60;99.90;;;;;;5046328;28;20033;-69
2023/11/05 03:52:00;;;;;;;2.50;0.77;;;11.60;99.90;;;;;;5044503;28;20037;-69
2023/11/05 03:54:27;;;;;;;3.35;0.60;;;11.60;99.90;;;;;;5047194;28;20013;-69
2023/11/05 03:56:52;;;;;;;1.85;0.73;;;11.60;99.90;;;;;;5048297;28;20021;-69
2023/11/05 03:59:18;;;;;;;5.20;0.95;;;11.70;99.90;;;;;;5044222;28;20021;-68
2023/11/05 04:01:51;;;;;;;6.38;0.68;;;11.70;99.90;;;;;;5048972;28;20055;-69
2023/11/05 04:04:20;;;;;;;7.88;1.02;;;11.70;99.90;;;;;;5045624;28;20089;-69
2023/11/05 04:06:45;;;;;;;3.33;0.80;;;11.70;99.90;;;;;;5046306;28;20037;-69
2023/11/05 04:09:16;;;;;;;1.92;0.73;;;11.70;99.90;;;;;;5045295;28;20029;-69
2023/11/05 04:11:41;;;;;;;6.53;0.90;;;11.70;99.90;;;;;;5049375;28;20418;-69
2023/11/05 04:14:07;;;;;;;5.20;0.93;;;11.70;99.90;;;;;;5047568;28;20033;-69
2023/11/05 04:16:32;;;;;;;3.67;0.93;;;11.70;99.90;;;;;;5041685;28;20087;-68
2023/11/05 04:19:00;;;;;;;4.13;0.90;;;11.70;99.90;;;;;;5042204;28;20096;-69
2023/11/05 04:21:26;;;;;;;4.43;0.88;;;11.70;99.90;;;;;;5043493;28;20033;-71
2023/11/05 04:23:52;;;;;;;12.25;1.35;;;11.70;99.90;;;;;;5047250;28;20028;-68
2023/11/05 04:26:17;;;;;;;6.03;0.95;;;11.70;99.90;;;;;;5048918;28;20376;-68
2023/11/05 04:28:43;;;;;;;8.13;1.60;;;11.70;99.90;;;;;;5047627;28;20039;-69
2023/11/05 04:31:09;;;;;;;4.88;0.70;;;11.70;99.90;;;;;;5046748;28;20025;-68
2023/11/05 04:33:34;;;;;;;2.45;0.88;;;11.70;99.90;;;;;;5046660;28;20029;-69
2023/11/05 04:36:03;;;;;;;5.32;0.90;;;11.70;99.90;;;;;;5042894;28;20029;-69
2023/11/05 04:38:31;;;;;;;4.38;0.90;;;11.70;99.90;;;;;;5045868;28;20068;-69
2023/11/05 04:40:56;;;;;;;10.95;0.98;;;11.70;99.90;;;;;;5046478;28;20029;-70
2023/11/05 04:43:22;;;;;;;4.70;1.35;;;11.70;99.90;;;;;;5048615;28;20094;-69
2023/11/05 04:45:47;;;;;;;5.53;0.60;;;11.70;99.90;;;;;;5045883;28;20029;-69
2023/11/05 04:48:13;;;;;;;3.75;0.90;;;11.70;99.90;;;;;;5047607;28;20025;-69
2023/11/05 04:50:39;;;;;;;4.10;0.70;;;11.70;99.90;;;;;;5045064;28;20052;-69
2023/11/05 04:53:07;;;;;;;5.60;0.85;;;11.70;99.90;;;;;;5045587;28;20036;-69
2023/11/05 04:55:37;;;;;;;16.02;1.55;;;11.70;99.90;;;;;;5045143;28;20032;-71
2023/11/05 04:58:05;;;;;;;4.38;0.68;;;11.70;99.90;;;;;;5046123;28;20037;-70
2023/11/05 05:00:34;;;;;;;5.18;1.05;;;11.70;99.90;;;;;;5044106;28;20040;-71
2023/11/05 05:03:02;;;;;;;2.92;0.90;;;11.70;99.90;;;;;;5043158;28;20034;-70
2023/11/05 05:05:30;;;;;;;;;;;11.70;99.90;;;;;;5144728;23;20048;-70
2023/11/05 05:07:58;;;;;;;4.78;0.98;;;11.80;99.90;;;;;;5042418;28;19913;-70
2023/11/05 05:10:24;;;;;;;4.90;0.80;;;11.80;99.90;;;;;;5037090;28;20106;-68
2023/11/05 05:12:49;;;;;;;3.55;0.88;;;11.80;99.90;;;;;;5037925;28;20487;-68
2023/11/05 05:15:15;;;;;;;3.83;0.75;;;11.80;99.90;;;;;;5043025;28;20063;-68
2023/11/05 05:17:40;;;;;;;3.75;0.70;;;11.80;99.90;;;;;;5045878;28;20025;-68
2023/11/05 05:20:09;;;;;;;4.53;0.60;;;11.80;99.90;;;;;;5045437;28;20055;-67
2023/11/05 05:22:40;;;;;;;6.07;1.17;;;11.80;99.90;;;;;;5040777;28;20036;-68
2023/11/05 05:25:06;;;;;;;2.75;0.82;;;11.80;99.90;;;;;;5044864;28;20036;-68
2023/11/05 05:27:34;;;;;;;5.10;0.85;;;11.80;99.90;;;;;;5047200;28;20037;-68
2023/11/05 05:30:03;;;;;;;1.35;0.80;;;11.80;99.90;;;;;;5043579;28;20025;-68
2023/11/05 05:32:31;;;;;;;5.30;0.73;;;11.80;99.90;;;;;;5044757;28;20025;-67
2023/11/05 05:34:59;;;;;;;6.78;0.80;;;11.80;99.90;;;;;;5041295;28;20079;-68
2023/11/05 05:37:24;;;;;;;2.40;1.02;;;11.80;99.90;;;;;;5047922;28;20017;-67
2023/11/05 05:39:50;;;;;;;1.73;0.65;;;11.90;99.90;;;;;;5048189;28;20021;-67
2023/11/05 05:42:16;;;;;;;4.25;1.25;;;11.90;99.90;;;;;;5046309;28;20764;-67
2023/11/05 05:44:41;;;;;;;6.43;1.63;;;11.80;99.90;;;;;;5047974;28;20112;-67
2023/11/05 05:47:09;;;;;;;4.22;0.95;;;11.80;99.90;;;;;;5042937;28;20548;-68
2023/11/05 05:49:37;;;;;;;5.20;0.90;;;11.80;99.90;;;;;;5046581;28;20025;-68
2023/11/05 05:52:05;;;;;;;2.80;0.80;;;11.80;99.90;;;;;;5049444;28;20025;-67
2023/11/05 05:54:31;;;;;;;5.35;0.80;;;11.80;99.90;;;;;;5045124;28;20026;-68
2023/11/05 05:56:57;;;;;;;3.88;0.88;;;11.80;99.90;;;;;;5043305;28;20112;-67
2023/11/05 05:59:25;;;;;;;2.15;0.77;;;11.90;99.90;;;;;;5047568;28;20021;-67
2023/11/05 06:01:50;;;;;;;;;;;11.80;99.90;;;;;;5046647;28;20120;-67
2023/11/05 06:04:16;;;;;;;6.22;0.88;;;11.90;99.90;;;;;;5045664;28;20007;-67
2023/11/05 06:06:44;;;;;;;3.38;0.90;;;11.80;99.90;;;;;;5045440;28;20082;-67
2023/11/05 06:09:12;;;;;;;2.85;0.88;;;11.80;99.90;;;;;;5046226;28;20074;-67
2023/11/05 06:11:38;;;;;;;3.25;0.65;;;11.80;99.90;;;;;;5043786;28;20029;-67
2023/11/05 06:14:06;;;;;;;2.90;0.80;;;11.80;99.90;;;;;;5049132;28;20399;-67
2023/11/05 06:16:34;;;;;;;5.07;0.88;;;11.80;99.90;;;;;;5048846;28;20037;-68
2023/11/05 06:19:02;;;;;;;;;;;11.80;99.90;;;;;;5048530;28;20442;-67
2023/11/05 06:21:27;;;;;;;;;;;11.80;99.90;;;;;;5044532;28;19955;-67
2023/11/05 06:23:56;;;;;;;4.47;0.95;;;11.80;99.90;;;;;;5043728;28;19944;-67
2023/11/05 06:26:24;;;;;;;;;;;11.80;99.90;;;;;;5049172;28;20494;-67
2023/11/05 06:28:49;;;;;;;;;;;11.80;99.90;;;;;;5050149;28;19958;-67
2023/11/05 06:31:17;;;;;;;7.55;0.98;;;11.80;99.90;;;;;;5047101;28;19925;-67
2023/11/05 06:33:45;;;;;;;2.65;0.65;;;11.80;99.90;;;;;;5046708;28;20108;-67
2023/11/05 06:36:11;;;;;;;4.63;1.00;;;11.80;99.90;;;;;;5047345;28;20101;-67
2023/11/05 06:38:40;;;;;;;5.45;1.08;;;11.80;99.90;;;;;;5049122;28;20100;-67
2023/11/05 06:41:06;;;;;;;5.28;1.23;;;11.80;99.90;;;;;;5043859;28;20036;-67
2023/11/05 06:43:31;;;;;;;1.75;0.75;;;11.80;99.90;;;;;;5047517;28;20043;-67
2023/11/05 06:45:57;;;;;;;4.47;0.75;;;11.80;99.90;;;;;;5040863;28;20056;-67
2023/11/05 06:48:23;;;;;;;4.15;0.80;;;11.80;99.90;;;;;;5045856;28;20087;-67
2023/11/05 06:50:52;;;;;;;6.78;0.88;;;11.80;99.90;;;;;;5048066;28;20527;-67
2023/11/05 06:53:18;;;;;;;5.30;1.08;;;11.80;99.90;;;;;;5047680;28;20037;-67
2023/11/05 06:55:45;;;;;;;2.83;0.80;;;11.80;99.90;;;;;;5047404;28;20029;-67
2023/11/05 06:58:17;;;;;;;8.73;0.90;;;11.80;99.90;;;;;;5046275;28;20033;-67
2023/11/05 07:00:47;;;;;;;5.55;0.98;;;11.80;99.90;;;;;;5046144;28;20025;-67
2023/11/05 07:03:13;;;;;;;4.90;0.88;;;11.80;99.90;;;;;;5046653;28;20039;-68
2023/11/05 07:05:39;;;;;;;4.93;0.70;;;11.80;99.90;;;;;;5048247;28;20028;-67
2023/11/05 07:08:08;;;;;;;2.25;0.63;;;11.80;99.90;;;;;;5049066;28;20044;-67
2023/11/05 07:10:39;;;;;;;6.13;0.77;;;11.80;99.90;;;;;;5041955;28;20049;-68
2023/11/05 07:13:05;;;;;;;2.22;0.90;;;11.80;99.90;;;;;;5049458;28;20036;-67
2023/11/05 07:15:30;;;;;;;4.15;0.98;;;11.80;99.90;;;;;;5048574;28;20025;-68
2023/11/05 07:17:57;;;;;;;2.47;0.63;;;11.90;99.90;;;;;;5048777;28;20018;-67
2023/11/05 07:20:25;;;;;;;4.77;1.00;;;11.80;99.90;;;;;;5044724;28;20022;-67
2023/11/05 07:22:53;;;;;;;2.28;0.98;;;11.80;99.90;;;;;;5045888;28;20270;-67
2023/11/05 07:25:21;;;;;;;4.97;0.80;;;11.80;99.90;;;;;;5048456;28;20041;-67
2023/11/05 07:27:46;;;;;;;2.20;0.70;;;11.90;99.90;;;;;;5048764;28;20043;-67
2023/11/05 07:30:13;;;;;;;2.85;1.00;;;11.80;99.90;;;;;;5046677;28;20107;-67
2023/11/05 07:32:40;;;;;;;3.63;0.85;;;11.80;99.90;;;;;;5047530;28;20127;-67
2023/11/05 07:35:05;;;;;;;3.22;1.02;;;11.80;99.90;;;;;;5045851;28;20017;-67
2023/11/05 07:37:33;;;;;;;4.85;1.25;;;11.80;99.90;;;;;;5045190;28;20591;-67
2023/11/05 07:39:59;;;;;;;6.10;1.83;;;11.80;99.90;;;;;;5047446;28;20025;-67
2023/11/05 07:42:24;;;;;;;5.55;1.65;;;11.80;99.90;;;;;;5046864;28;20537;-67
2023/11/05 07:44:50;;;;;;;3.47;1.30;;;11.90;99.90;;;;;;5042633;28;20033;-67
2023/11/05 07:47:15;;;;;;;4.63;1.05;;;11.90;99.90;;;;;;5042796;28;20384;-67
2023/11/05 07:49:41;;;;;;;3.17;0.80;;;11.90;99.90;;;;;;5048283;28;20395;-67
2023/11/05 07:52:09;;;;;;;4.47;0.63;;;11.90;99.90;;;;;;5043271;28;20032;-67
2023/11/05 07:54:35;;;;;;;1.48;0.63;;;11.90;99.90;;;;;;5045049;28;20032;-68
2023/11/05 07:57:03;;;;;;;2.95;0.50;;;12.00;99.90;;;;;;5048712;28;20033;-67
2023/11/05 07:59:28;;;;;;;;;;;12.00;99.90;;;;;;5045287;28;20078;-68
2023/11/05 08:01:56;;;;;;;1.90;0.60;;;12.00;99.90;;;;;;5048051;28;20321;-67
2023/11/05 08:04:24;;;;;;;4.38;0.57;;;12.00;99.90;;;;;;5046932;28;20390;-68
2023/11/05 08:06:50;;;;;;;4.05;1.20;;;12.00;99.90;;;;;;5046246;28;20044;-67
2023/11/05 08:09:18;;;;;;;3.58;0.70;;;12.00;99.90;;;;;;5045986;28;20037;-67
2023/11/05 08:11:43;;;;;;;1.10;0.57;;;12.10;99.90;;;;;;5044018;28;20107;-67
2023/11/05 08:14:09;;;;;;;2.80;0.73;;;12.10;99.90;;;;;;5047350;28;20421;-67
2023/11/05 08:16:37;;;;;;;3.97;1.05;;;12.10;99.90;;;;;;5046827;28;20028;-67
2023/11/05 08:19:03;;;;;;;4.95;1.20;;;12.10;99.90;;;;;;5043710;28;20028;-67
2023/11/05 08:21:33;;;;;;;2.35;1.10;;;12.10;99.90;;;;;;5042308;28;20037;-68
2023/11/05 08:24:04;;;;;;;2.15;0.50;;;12.10;99.90;;;;;;5044791;28;20483;-67
2023/11/05 08:26:29;;;;;;;6.60;1.10;;;12.20;99.90;;;;;;5046899;28;20120;-68
2023/11/05 08:28:55;;;;;;;1.92;0.77;;;12.10;99.90;;;;;;5044414;28;20116;-68
2023/11/05 08:31:21;;;;;;;1.90;0.70;;;12.10;99.90;;;;;;5042006;28;20028;-67
2023/11/05 08:33:46;;;;;;;3.30;0.60;;;12.10;99.90;;;;;;5046286;28;20025;-67
2023/11/05 08:36:15;;;;;;;2.60;0.70;;;12.20;99.90;;;;;;5046328;28;20028;-67
2023/11/05 08:38:41;;;;;;;3.13;0.80;;;12.20;99.90;;;;;;5043186;28;20396;-67
2023/11/05 08:41:09;;;;;;;2.72;0.70;;;12.10;99.90;;;;;;5046747;28;20063;-67
2023/11/05 08:43:34;;;;;;;;;;;12.20;99.90;;;;;;5043852;28;20036;-67
2023/11/05 08:46:00;;;;;;;2.10;0.73;;;12.20;99.90;;;;;;5044799;28;19912;-67
2023/11/05 08:48:26;;;;;;;4.47;0.75;;;12.20;99.90;;;;;;5044464;28;20142;-67
2023/11/05 08:50:56;;;;;;;2.63;0.88;;;12.20;99.90;;;;;;5045742;28;20181;-68
2023/11/05 08:53:23;;;;;;;7.30;0.88;;;12.30;99.90;;;;;;5043983;28;20033;-67
2023/11/05 08:55:51;;;;;;;4.60;1.02;;;12.30;99.90;;;;;;5043343;28;20159;-68
2023/11/05 08:58:17;;;;;;;2.75;1.05;;;12.30;99.90;;;;;;5043505;28;20037;-67
2023/11/05 09:00:43;;;;;;;5.90;1.08;;;12.30;99.90;;;;;;5047499;28;20037;-67
2023/11/05 09:03:11;;;;;;;3.85;0.95;;;12.30;99.90;;;;;;5045483;28;20056;-67
2023/11/05 09:05:37;;;;;;;2.33;0.83;;;12.30;99.90;;;;;;5010820;28;1090980;-67
2023/11/05 09:08:03;;;;;;;3.50;0.80;;;12.30;99.90;;;;;;5049346;28;20263;-67
2023/11/05 09:10:30;;;;;;;2.78;0.90;;;12.30;99.90;;;;;;5046909;28;20021;-67
2023/11/05 09:12:59;;;;;;;5.07;1.83;;;12.40;99.90;;;;;;5051854;28;20489;-68
2023/11/05 09:15:25;;;;;;;4.53;0.60;;;12.40;99.90;;;;;;5051298;28;20021;-67
2023/11/05 09:17:51;;;;;;;6.32;0.80;;;12.40;99.90;;;;;;5049549;28;20033;-68
2023/11/05 09:20:19;;;;;;;2.78;0.73;;;12.40;99.90;;;;;;5050113;28;20112;-68
2023/11/05 09:22:46;;;;;;;1.48;0.60;;;12.40;99.90;;;;;;5049267;28;20037;-68
2023/11/05 09:25:14;;;;;;;4.25;0.80;;;12.40;99.90;;;;;;5047864;28;20044;-68
2023/11/05 09:27:42;;;;;;;4.50;0.80;;;12.40;99.90;;;;;;5050925;28;20059;-68
2023/11/05 09:30:11;;;;;;;3.65;0.85;;;12.50;99.90;;;;;;5047688;28;20052;-68
2023/11/05 09:32:42;;;;;;;1.23;0.55;;;12.50;99.90;;;;;;5047380;28;20029;-67
2023/11/05 09:35:12;;;;;;;3.28;0.80;;;12.60;99.90;;;;;;5046811;28;20037;-67
2023/11/05 09:37:39;;;;;;;8.52;1.00;;;12.60;99.90;;;;;;5050127;28;20379;-68
2023/11/05 09:40:06;;;;;;;1.85;0.85;;;12.60;99.90;;;;;;5049130;28;20052;-67
2023/11/05 09:42:38;;;;;;;2.35;0.60;;;12.60;99.90;;;;;;5049734;28;20040;-67
2023/11/05 09:45:06;;;;;;;3.00;0.60;;;12.60;99.90;;;;;;5049351;28;20403;-68
2023/11/05 09:47:34;;;;;;;2.35;0.68;;;12.60;99.90;;;;;;5045902;28;20037;-68
2023/11/05 09:50:00;;;;;;;3.63;0.52;;;12.70;99.90;;;;;;5045621;28;20029;-68
2023/11/05 09:52:28;;;;;;;3.92;0.50;;;12.70;99.90;;;;;;5049429;28;20971;-67
2023/11/05 09:54:56;;;;;;;1.33;0.50;;;12.60;99.90;;;;;;5048703;28;20037;-68
2023/11/05 09:57:22;;;;;;;3.38;0.65;;;12.70;99.90;;;;;;5051985;28;20025;-68
2023/11/05 09:59:48;;;;;;;4.28;0.60;;;12.70;99.90;;;;;;5044106;28;20372;-67
2023/11/05 10:02:14;;;;;;;2.75;0.70;;;12.60;99.90;;;;;;5051568;28;20035;-68
2023/11/05 10:04:43;;;;;;;2.75;0.60;;;12.60;99.90;;;;;;5051036;28;20021;-68
2023/11/05 10:07:09;;;;;;;2.33;0.45;;;12.70;99.90;;;;;;5044909;28;20131;-68
2023/11/05 10:09:36;;;;;;;1.98;0.57;;;12.80;99.90;;;;;;5044772;28;20178;-68
2023/11/05 10:12:04;;;;;;;0.60;0.38;;;12.80;99.90;;;;;;5051122;28;20036;-68
2023/11/05 10:14:31;;;;;;;;;;;12.90;99.90;;;;;;5050726;28;20043;-68
2023/11/05 10:17:01;;;;;;;13.43;3.78;;;13.00;99.90;;;;;;5047465;28;19917;-68
2023/11/05 10:19:26;;;;;;;2.05;0.73;;;13.10;99.90;;;;;;5048314;28;20112;-68
2023/11/05 10:21:52;;;;;;;2.58;0.90;;;13.10;99.90;;;;;;5050748;28;20105;-68
2023/11/05 10:24:45;;;;;;;2.75;0.47;;;13.20;99.90;;;;;;5044991;28;20123;-68
2023/11/05 10:27:10;;;;;;;3.97;0.40;;;13.20;99.90;;;;;;5047197;28;20035;-68
2023/11/05 10:29:39;;;;;;;2.53;0.40;;;13.20;99.90;;;;;;5049921;28;20141;-68
2023/11/05 10:32:05;;;;;;;1.58;0.50;;;13.20;99.90;;;;;;5046180;28;20487;-67
2023/11/05 10:34:32;;;;;;;0.40;0.30;;;13.30;99.90;;;;;;5045942;28;20057;-67
2023/11/05 10:36:58;;;;;;;1.27;0.20;;;13.30;99.90;;;;;;5049402;28;20013;-68
2023/11/05 10:39:24;;;;;;;0.52;0.20;;;13.20;99.90;;;;;;5048475;28;20075;-68
2023/11/05 10:41:51;;;;;;;1.23;0.60;;;13.20;99.90;;;;;;5046772;28;20541;-68
2023/11/05 10:44:18;;;;;;;0.75;0.47;;;13.20;99.90;;;;;;5048953;28;20067;-68
2023/11/05 10:46:46;;;;;;;2.38;0.50;;;13.20;99.90;;;;;;5045868;28;20514;-68
2023/11/05 10:49:12;;;;;;;1.27;0.57;;;13.20;99.90;;;;;;5050005;28;20037;-67
2023/11/05 10:51:38;;;;;;;2.72;1.20;;;13.20;99.90;;;;;;5048076;28;20108;-68
2023/11/05 10:54:07;;;;;;;1.08;0.30;;;13.20;99.90;;;;;;5044765;28;20703;-68
2023/11/05 10:56:36;;;;;;;0.57;0.30;;;13.20;99.90;;;;;;5047146;28;20025;-68
2023/11/05 10:59:03;;;;;;;0.43;0.20;;;13.10;99.90;;;;;;5047602;28;20033;-68
2023/11/05 11:01:35;;;;;;;0.47;0.38;;;13.20;99.90;;;;;;5049746;28;20039;-68
2023/11/05 11:04:10;;;;;;;0.75;0.32;;;13.20;99.90;;;;;;5045393;28;20037;-68
2023/11/05 11:06:39;;;;;;;0.50;0.30;;;13.20;99.90;;;;;;5047967;28;20055;-68
2023/11/05 11:09:22;;;;;;;1.30;0.57;;;13.30;99.90;;;;;;5047424;28;20442;-68
2023/11/05 11:11:48;;;;;;;1.20;0.30;;;13.30;99.90;;;;;;5047877;28;20112;-68
2023/11/05 11:14:15;;;;;;;0.63;0.30;;;13.30;99.90;;;;;;5045423;28;20021;-67
2023/11/05 11:16:42;;;;;;;0.57;0.20;;;13.30;99.90;;;;;;5049707;28;20044;-68
2023/11/05 11:19:12;;;;;;;0.28;0.20;;;13.30;99.90;;;;;;5048202;28;20064;-68
2023/11/05 11:21:58;;;;;;;1.80;0.52;;;13.30;99.90;;;;;;5044794;28;20060;-68
2023/11/05 11:24:36;;;;;;;0.35;0.20;;;13.30;99.90;;;;;;5043893;28;20574;-68
2023/11/05 11:27:05;;;;;;;0.75;0.30;;;13.30;99.90;;;;;;5046953;28;20029;-67
2023/11/05 11:29:32;;;;;;;0.35;0.30;;;13.30;99.90;;;;;;5045487;28;20132;-68
2023/11/05 11:32:00;;;;;;;1.80;0.87;;;13.40;99.90;;;;;;5046336;28;20028;-68
2023/11/05 11:34:26;;;;;;;0.70;0.32;;;13.40;99.90;;;;;;5046736;28;20021;-68
2023/11/05 11:37:03;;;;;;;1.80;0.40;;;13.50;99.90;;;;;;5047987;28;20110;-68
2023/11/05 11:39:29;;;;;;;0.88;0.25;;;13.50;99.90;;;;;;5048008;28;20025;-67
2023/11/05 11:41:57;;;;;;;0.52;0.30;;;13.50;99.90;;;;;;5048655;28;20040;-68
2023/11/05 11:44:26;;;;;;;1.55;0.25;;;13.50;99.90;;;;;;5044340;28;20028;-68
2023/11/05 11:46:54;;;;;;;0.22;0.20;;;13.50;99.90;;;;;;5049308;28;20414;-68
2023/11/05 11:49:21;;;;;;;;;;;13.50;99.90;;;;;;5045288;28;20544;-68
2023/11/05 11:51:47;;;;;;;0.80;0.20;;;13.50;99.90;;;;;;5048182;28;19928;-68
2023/11/05 11:54:13;;;;;;;1.05;0.20;;;13.60;99.90;;;;;;5040632;28;20045;-68
2023/11/05 11:56:41;;;;;;;0.25;0.20;;;13.60;99.90;;;;;;5042907;28;20025;-68
2023/11/05 11:59:08;;;;;;;0.20;0.20;;;13.60;99.90;;;;;;5045352;28;20025;-68
2023/11/05 12:01:37;;;;;;;1.08;0.30;;;13.60;99.90;;;;;;5047654;28;20445;-68
2023/11/05 12:04:04;;;;;;;0.98;0.50;;;13.70;99.90;;;;;;5047868;28;20037;-68
2023/11/05 12:06:32;;;;;;;0.20;0.20;;;13.70;99.90;;;;;;5045355;28;20033;-68
2023/11/05 12:08:58;;;;;;;;;;;13.70;99.90;;;;;;5046444;28;20632;-67
2023/11/05 12:11:29;;;;;;;0.88;0.45;;;13.70;99.90;;;;;;5045580;28;19928;-68
2023/11/05 12:13:55;;;;;;;0.55;0.30;;;13.70;99.90;;;;;;5041235;28;20044;-68
2023/11/05 12:16:26;;;;;;;0.30;0.20;;;13.70;99.90;;;;;;5047668;28;20837;-67
2023/11/05 12:18:51;;;;;;;2.47;0.40;;;13.70;99.90;;;;;;5048344;28;20020;-68
2023/11/05 12:21:17;;;;;;;1.13;0.50;;;13.70;99.90;;;;;;5043176;28;20436;-68
2023/11/05 12:23:47;;;;;;;0.60;0.50;;;13.70;99.90;;;;;;5043903;28;20029;-67
2023/11/05 12:26:17;;;;;;;0.95;0.63;;;13.80;99.90;;;;;;5030864;28;20409;-68
2023/11/05 12:28:44;;;;;;;0.77;0.60;;;13.70;99.90;;;;;;5045718;28;20095;-67
2023/11/05 12:31:09;;;;;;;1.98;0.50;;;13.80;99.90;;;;;;5044804;28;20024;-67
2023/11/05 12:33:41;;;;;;;2.00;1.02;;;13.80;99.90;;;;;;5046985;28;20017;-67
2023/11/05 12:36:07;;;;;;;1.60;0.63;;;13.80;99.90;;;;;;5048537;28;20041;-68
2023/11/05 12:38:33;;;;;;;1.67;0.68;;;13.70;99.90;;;;;;5046976;28;20029;-68
2023/11/05 12:40:59;;;;;;;1.60;0.40;;;13.80;99.90;;;;;;5046006;28;20025;-67
2023/11/05 12:43:27;;;;;;;0.57;0.50;;;13.70;99.90;;;;;;5044739;28;20035;-67
2023/11/05 12:45:55;;;;;;;;;;;13.70;99.90;;;;;;5040552;28;20049;-68
2023/11/05 12:48:21;;;;;;;;;;;13.70;99.90;;;;;;5045436;28;19912;-67
2023/11/05 12:50:49;;;;;;;6.38;1.40;;;13.70;99.90;;;;;;5048197;28;19924;-68